createdAt,value
2022-09-13T02:17:32.459Z,10.20
2022-09-13T02:39:21.336Z,7.75
2022-09-13T02:50:08.546Z,8.32
2022-09-13T03:02:03.650Z,6.10
2022-09-13T03:36:27.605Z,7.78
2022-09-13T03:47:48.646Z,7.30
2022-09-13T03:58:43.242Z,5.97
2022-09-13T14:55:06.045Z,18.42
2022-09-13T15:05:20.046Z,25.98
2022-09-13T15:15:36.327Z,17.02
2022-09-13T15:26:52.987Z,16.95
2022-09-13T15:37:19.944Z,18.77
2022-09-13T15:47:34.099Z,23.48
2022-09-13T15:57:46.037Z,20.08
2022-09-13T16:08:10.712Z,20.17
2022-09-13T16:18:24.992Z,23.52
2022-09-13T16:28:41.408Z,23.73
2022-09-13T16:38:54.147Z,25.00
2022-09-13T16:59:48.215Z,22.38
2022-09-13T17:09:57.991Z,20.92
2022-09-13T17:20:10.783Z,17.15
2022-09-13T17:30:21.683Z,18.58
2022-09-13T17:40:31.478Z,16.27
2022-09-13T17:50:38.578Z,18.17
2022-09-13T18:00:47.648Z,16.40
2022-09-13T18:11:12.383Z,15.55
2022-09-13T18:21:23.580Z,14.45
2022-09-13T18:31:30.847Z,14.85
2022-09-13T18:41:44.826Z,11.77
2022-09-13T18:51:52.546Z,14.60
2022-09-13T19:02:04.741Z,14.95
2022-09-13T19:12:12.716Z,14.98
2022-09-13T19:22:22.820Z,18.88
2022-09-13T19:32:30.058Z,20.50
2022-09-13T19:54:59.470Z,19.23
2022-09-13T20:05:06.995Z,16.17
2022-09-13T20:15:19.117Z,16.63
2022-09-13T20:25:46.878Z,15.48
2022-09-13T20:36:12.166Z,16.17
2022-09-13T20:46:20.748Z,14.55
2022-09-13T20:57:14.282Z,14.80
2022-09-13T21:07:48.156Z,16.25
2022-09-13T21:18:06.700Z,15.85
2022-09-13T21:28:38.224Z,15.70
2022-09-13T21:39:04.968Z,15.07
2022-09-13T21:49:38.822Z,14.15
2022-09-13T21:59:53.905Z,15.45
2022-09-13T22:10:01.359Z,17.50
2022-09-13T22:20:10.982Z,15.48
2022-09-13T22:30:23.927Z,14.73
2022-09-13T22:40:36.834Z,15.88
2022-09-13T22:50:43.982Z,12.90
2022-09-13T23:01:08.506Z,14.32
2022-09-13T23:11:17.587Z,10.65
2022-09-13T23:21:28.077Z,10.60
2022-09-13T23:31:41.575Z,11.32
2022-09-13T23:41:56.179Z,10.48
2022-09-13T23:52:03.614Z,13.10
